Time;durP1;ratioP1;P1;durP2;ratioP2;P2;SDS_P1;SDS_P2;PMS_P1;PMS_P2;Temp;Humidity;BMP_temperature;BMP_pressure;BME280_temperature;BME280_humidity;BME280_pressure;Samples;Min_cycle;Max_cycle;Signal;HPM_P1;HPM_P2
2022/12/12 00:01:17;;;;;;;38.78;3.95;;;;;;;20.22;62.45;98591.66;7308022;19;129167;-66
2022/12/12 00:03:43;;;;;;;63.78;5.80;;;;;;;20.19;62.79;98599.81;7307485;19;129621;-66
2022/12/12 00:06:08;;;;;;;26.25;3.33;;;;;;;20.16;62.60;98593.09;7308820;19;129000;-67
2022/12/12 00:08:34;;;;;;;43.33;4.45;;;;;;;20.17;62.38;98593.91;7308744;19;129244;-65
2022/12/12 00:10:59;;;;;;;37.08;3.78;;;;;;;20.20;62.17;98583.16;7305127;19;130253;-66
2022/12/12 00:13:24;;;;;;;29.08;3.13;;;;;;;20.16;62.91;98592.28;7310624;19;129150;-65
2022/12/12 00:15:50;;;;;;;47.22;4.55;;;;;;;20.16;62.58;98589.69;7308078;19;129717;-66
2022/12/12 00:18:15;;;;;;;30.48;3.63;;;;;;;20.16;62.74;98602.72;7308266;19;132994;-65
2022/12/12 00:20:40;;;;;;;54.17;4.78;;;;;;;20.16;63.06;98594.91;7309790;19;129593;-65
2022/12/12 00:23:06;;;;;;;39.33;3.97;;;;;;;20.17;63.38;98604.34;7310063;19;129351;-65
2022/12/12 00:25:31;;;;;;;29.15;2.88;;;;;;;20.13;62.87;98593.38;7308014;19;130460;-65
2022/12/12 00:27:56;;;;;;;38.15;3.80;;;;;;;20.07;62.73;98577.50;7308970;19;129317;-66
2022/12/12 00:30:22;;;;;;;41.67;4.32;;;;;;;20.19;62.60;98592.81;7306877;19;129700;-66
2022/12/12 00:32:47;;;;;;;36.10;3.95;;;;;;;20.21;63.03;98598.66;7311987;19;128897;-65
2022/12/12 00:35:12;;;;;;;35.53;3.85;;;;;;;20.22;63.18;98591.66;7314444;19;128917;-66
2022/12/12 00:37:38;;;;;;;57.17;5.43;;;;;;;20.24;64.01;98594.94;7316252;19;129432;-65
2022/12/12 00:40:05;;;;;;;36.63;3.95;;;;;;;20.21;63.59;98597.88;7315329;19;129321;-65
2022/12/12 00:42:30;;;;;;;39.67;4.20;;;;;;;20.20;62.42;98589.22;7315882;19;129458;-64
2022/12/12 00:44:55;;;;;;;46.03;4.73;;;;;;;20.23;63.01;98582.88;7312629;19;129014;-67
2022/12/12 00:47:21;;;;;;;37.10;3.55;;;;;;;20.19;64.04;98587.59;7313374;19;130061;-66
2022/12/12 00:49:46;;;;;;;31.15;3.65;;;;;;;20.10;62.69;98575.41;7315666;19;129200;-66
2022/12/12 00:52:12;;;;;;;22.63;2.88;;;;;;;20.17;63.86;98591.31;7312670;19;128934;-67
2022/12/12 00:54:38;;;;;;;28.67;3.00;;;;;;;20.18;63.51;98598.19;7315107;19;129088;-67
2022/12/12 00:57:03;;;;;;;47.72;4.30;;;;;;;20.18;63.21;98595.56;7314713;19;129221;-65
2022/12/12 00:59:29;;;;;;;39.83;3.83;;;;;;;20.13;62.05;98584.75;7313351;19;129457;-66
2022/12/12 01:01:54;;;;;;;24.65;3.08;;;;;;;20.23;62.19;98603.75;7313468;19;129027;-65
2022/12/12 01:04:19;;;;;;;24.13;2.75;;;;;;;20.19;62.92;98612.84;7314628;19;129385;-65
2022/12/12 01:06:45;;;;;;;41.35;3.83;;;;;;;20.16;62.73;98605.34;7313537;19;129881;-66
2022/12/12 01:09:10;;;;;;;35.15;4.13;;;;;;;20.11;64.04;98599.72;7314090;19;129629;-66
2022/12/12 01:11:35;;;;;;;33.58;3.30;;;;;;;20.14;62.78;98609.84;7311308;19;129066;-67
2022/12/12 01:14:01;;;;;;;46.67;4.35;;;;;;;20.01;63.50;98588.56;7313193;19;129287;-67
2022/12/12 01:16:26;;;;;;;44.45;4.20;;;;;;;20.09;63.42;98607.72;7311293;19;131874;-66
2022/12/12 01:18:52;;;;;;;39.97;3.85;;;;;;;20.11;62.55;98610.16;7313726;19;129352;-66
2022/12/12 01:21:18;;;;;;;34.45;3.78;;;;;;;20.13;63.31;98623.88;7310929;19;128920;-68
2022/12/12 01:23:44;;;;;;;37.40;3.97;;;;;;;20.17;62.80;98614.78;7313182;19;128728;-65
2022/12/12 01:26:13;;;;;;;44.53;4.20;;;;;;;20.16;63.29;98610.56;7317037;19;128919;-65
2022/12/12 01:28:39;;;;;;;38.92;4.18;;;;;;;20.27;62.45;98605.06;7311752;19;129723;-64
2022/12/12 01:31:05;;;;;;;33.75;3.33;;;;;;;20.32;61.95;98606.25;7311822;19;130124;-66
2022/12/12 01:33:30;;;;;;;46.33;4.30;;;;;;;20.35;61.98;98602.50;7311987;19;129359;-65
2022/12/12 01:35:56;;;;;;;34.97;3.60;;;;;;;20.34;61.81;98606.09;7312603;19;129078;-67
2022/12/12 01:38:23;;;;;;;48.97;4.32;;;;;;;20.39;61.49;98614.28;7313774;19;129630;-64
2022/12/12 01:40:49;;;;;;;27.13;2.75;;;;;;;20.38;61.59;98612.63;7311897;19;129022;-65
2022/12/12 01:43:17;;;;;;;44.90;4.20;;;;;;;20.33;62.82;98605.25;7314517;19;129553;-66
2022/12/12 01:45:58;;;;;;;32.72;3.42;;;;;;;20.29;63.81;98605.72;7311227;19;130063;-65
2022/12/12 01:48:46;;;;;;;37.65;3.53;;;;;;;20.30;62.31;98599.53;7312947;19;129559;-64
2022/12/12 01:51:15;;;;;;;51.47;4.53;;;;;;;20.31;62.37;98601.19;7310893;19;128751;-64
2022/12/12 01:53:41;;;;;;;36.03;3.97;;;;;;;20.26;62.54;98609.44;7309919;19;129102;-67
2022/12/12 01:56:13;;;;;;;31.13;3.17;;;;;;;20.24;64.24;98614.03;7311333;19;129603;-66
2022/12/12 01:58:44;;;;;;;41.95;3.75;;;;;;;20.19;64.00;98618.06;7311847;19;129257;-65
2022/12/12 02:01:11;;;;;;;43.97;3.88;;;;;;;20.25;62.92;98614.84;7310843;19;129101;-67
2022/12/12 02:03:38;;;;;;;34.67;3.63;;;;;;;20.24;62.69;98623.66;7311315;19;130009;-67
2022/12/12 02:06:09;;;;;;;25.38;2.97;;;;;;;20.21;63.95;98616.13;7310665;19;129172;-67
2022/12/12 02:08:36;;;;;;;43.05;4.15;;;;;;;20.15;63.35;98614.13;7311291;19;129196;-66
2022/12/12 02:11:01;;;;;;;46.25;4.35;;;;;;;20.16;63.43;98613.16;7310940;19;129564;-67
2022/12/12 02:13:29;;;;;;;37.70;3.70;;;;;;;20.18;63.09;98613.84;7312163;19;129285;-65
2022/12/12 02:15:55;;;;;;;27.58;2.90;;;;;;;20.17;63.23;98614.78;7312077;19;130731;-67
2022/12/12 02:18:29;;;;;;;48.75;4.35;;;;;;;20.17;63.43;98604.34;7312999;19;129260;-64
2022/12/12 02:21:09;;;;;;;51.33;4.53;;;;;;;20.13;63.96;98609.03;7310557;19;129507;-66
2022/12/12 02:24:07;;;;;;;46.85;4.35;;;;;;;20.13;63.83;98608.22;7310846;19;129232;-65
2022/12/12 02:27:10;;;;;;;48.05;4.55;;;;;;;20.24;63.80;98615.81;7307517;19;129652;-68
2022/12/12 02:30:00;;;;;;;25.17;2.95;;;;;;;20.33;62.23;98605.25;7310911;19;129102;-67
2022/12/12 02:32:47;;;;;;;35.10;3.42;;;;;;;20.26;62.05;98585.97;7310497;19;129951;-65
2022/12/12 02:35:32;;;;;;;44.13;4.23;;;;;;;20.32;62.65;98581.94;7309757;19;129417;-66
2022/12/12 02:38:10;;;;;;;9.68;1.83;;;;;;;20.40;61.85;98600.22;7311007;19;130246;-67
2022/12/12 02:41:10;;;;;;;;;;;;;;;20.35;62.12;98597.28;7309315;19;131952;-67
2022/12/12 02:43:57;;;;;;;26.05;3.10;;;;;;;20.37;62.05;98605.78;7307491;19;129675;-65
2022/12/12 02:46:47;;;;;;;34.65;3.55;;;;;;;20.35;62.06;98611.16;7307638;19;129340;-65
2022/12/12 02:49:24;;;;;;;35.88;3.33;;;;;;;20.26;62.70;98595.59;7310580;19;129083;-65
2022/12/12 02:51:51;;;;;;;31.15;3.22;;;;;;;20.30;62.73;98602.13;7307490;19;130753;-66
2022/12/12 02:54:20;;;;;;;48.80;4.63;;;;;;;20.25;62.59;98599.16;7310328;19;130014;-65
2022/12/12 02:56:51;;;;;;;36.22;3.58;;;;;;;20.23;63.84;98603.75;7308897;19;129416;-67
2022/12/12 02:59:40;;;;;;;32.10;3.22;;;;;;;20.13;64.20;98588.16;7308300;19;132550;-67
2022/12/12 03:02:24;;;;;;;43.67;4.18;;;;;;;20.21;64.09;98603.09;7305896;19;133347;-67
2022/12/12 03:07:58;;;;;;;38.88;3.80;;;;;;;20.17;64.34;98601.75;7308252;19;130597;-65
2022/12/12 03:10:53;;;;;;;34.10;3.63;;;;;;;20.14;63.98;98604.63;7310643;19;129891;-66
2022/12/12 03:13:40;;;;;;;34.40;3.35;;;;;;;20.14;64.98;98604.63;7314292;19;129293;-66
2022/12/12 03:16:31;;;;;;;36.17;3.13;;;;;;;20.20;63.65;98606.66;7310889;19;129644;-65
2022/12/12 03:19:21;;;;;;;34.70;3.20;;;;;;;20.27;62.69;98599.84;7310444;19;129287;-66
2022/12/12 03:21:56;;;;;;;38.80;3.58;;;;;;;20.31;62.07;98601.97;7307936;19;130246;-65
2022/12/12 03:24:27;;;;;;;35.35;3.50;;;;;;;20.33;62.20;98599.22;7310375;19;129861;-68
2022/12/12 03:27:00;;;;;;;31.02;3.15;;;;;;;20.33;61.81;98604.44;7306664;19;130058;-65
2022/12/12 03:29:37;;;;;;;31.27;2.92;;;;;;;20.33;62.20;98601.81;7309661;19;128865;-67
2022/12/12 03:32:06;;;;;;;;;;;;;;;20.36;62.77;98604.16;7307908;19;129548;-67
2022/12/12 03:34:41;;;;;;;35.95;3.38;;;;;;;20.25;61.82;98583.50;7308274;19;131993;-65
2022/12/12 03:37:17;;;;;;;33.58;3.00;;;;;;;20.21;61.65;98576.97;7308608;19;129389;-65
2022/12/12 03:39:51;;;;;;;37.17;3.50;;;;;;;20.36;62.23;98599.72;7310047;19;129115;-67
2022/12/12 03:42:20;;;;;;;35.08;3.30;;;;;;;20.34;62.28;98601.69;7305889;19;129714;-65
2022/12/12 03:44:55;;;;;;;56.55;5.03;;;;;;;20.34;62.27;98600.88;7310612;19;130310;-67
2022/12/12 03:47:37;;;;;;;41.60;3.47;;;;;;;20.33;62.22;98594.81;7307645;19;129094;-66
2022/12/12 03:50:10;;;;;;;46.08;3.97;;;;;;;20.30;61.90;98594.31;7308590;19;129514;-66
2022/12/12 03:52:53;;;;;;;34.35;3.47;;;;;;;20.24;62.46;98579.28;7309397;19;130068;-65
2022/12/12 03:55:44;;;;;;;48.80;4.13;;;;;;;20.30;62.95;98600.34;7310649;19;129656;-67
2022/12/12 03:58:30;;;;;;;48.72;4.20;;;;;;;20.36;62.23;98599.72;7309670;19;130713;-67
2022/12/12 04:00:57;;;;;;;35.67;3.45;;;;;;;20.37;61.71;98605.78;7307351;19;130831;-64
2022/12/12 04:03:30;;;;;;;35.22;3.30;;;;;;;20.39;61.75;98609.88;7311113;19;130039;-66
2022/12/12 04:06:26;;;;;;;50.25;4.43;;;;;;;20.42;62.66;98609.56;7306845;19;129933;-68
2022/12/12 04:14:47;;;;;;;41.72;3.95;;;;;;;20.27;61.56;98584.19;7316018;19;129077;-67
2022/12/12 04:17:16;;;;;;;38.45;3.42;;;;;;;20.42;62.26;98608.72;7315244;19;131367;-67
2022/12/12 04:23:15;;;;;;;39.28;3.30;;;;;;;20.37;62.05;98597.94;7315662;19;129020;-65
2022/12/12 04:29:26;;;;;;;35.65;3.45;;;;;;;20.25;62.29;98592.16;7313670;19;130668;-65
2022/12/12 04:31:54;;;;;;;49.38;4.15;;;;;;;20.40;62.22;98614.13;7311101;19;128900;-66
2022/12/12 04:34:38;;;;;;;38.33;3.75;;;;;;;20.36;62.53;98598.94;7316212;19;129150;-66
2022/12/12 04:37:06;;;;;;;24.73;2.70;;;;;;;20.39;62.38;98603.81;7314601;19;129559;-67
2022/12/12 04:39:35;;;;;;;41.13;3.72;;;;;;;20.34;62.23;98600.88;7314963;19;129097;-66
2022/12/12 04:42:04;;;;;;;40.92;4.13;;;;;;;20.17;63.08;98597.34;7312468;19;129557;-65
2022/12/12 04:44:31;;;;;;;56.22;4.88;;;;;;;20.26;63.06;98612.06;7314679;19;129102;-65
2022/12/12 04:47:00;;;;;;;37.03;3.33;;;;;;;20.23;62.74;98614.19;7313488;19;129509;-66
2022/12/12 04:49:30;;;;;;;38.22;3.70;;;;;;;20.20;63.97;98624.91;7313005;19;129193;-66
2022/12/12 04:52:04;;;;;;;36.40;3.42;;;;;;;20.19;62.87;98618.91;7312404;19;129515;-66
2022/12/12 04:55:01;;;;;;;38.90;3.80;;;;;;;20.18;64.49;98621.66;7314615;19;128806;-65
2022/12/12 04:57:33;;;;;;;52.63;4.67;;;;;;;20.12;63.86;98623.06;7317597;19;129589;-67
2022/12/12 04:59:58;;;;;;;48.38;3.95;;;;;;;20.16;63.62;98623.59;7311911;19;129267;-65
2022/12/12 05:02:39;;;;;;;47.83;4.43;;;;;;;20.18;64.34;98621.66;7313958;19;129092;-66
2022/12/12 05:05:15;;;;;;;51.53;4.72;;;;;;;20.14;64.41;98626.34;7312060;19;129959;-67
2022/12/12 05:07:44;;;;;;;36.05;3.67;;;;;;;20.14;62.91;98628.94;7307403;19;131950;-67
2022/12/12 05:10:14;;;;;;;38.60;3.70;;;;;;;20.15;62.81;98629.78;7310078;19;133115;-67
2022/12/12 05:12:45;;;;;;;50.88;4.28;;;;;;;20.15;64.07;98621.94;7313398;19;130102;-67
2022/12/12 05:15:11;;;;;;;55.90;4.85;;;;;;;20.14;63.25;98635.94;7312933;19;129149;-66
2022/12/12 05:17:44;;;;;;;54.88;4.57;;;;;;;20.16;63.43;98639.25;7311110;19;129691;-66
2022/12/12 05:20:10;;;;;;;44.13;3.97;;;;;;;20.03;62.72;98617.94;7309878;19;129530;-67
2022/12/12 05:22:35;;;;;;;40.80;3.97;;;;;;;20.11;64.04;98638.88;7309255;19;128999;-65
2022/12/12 05:25:00;;;;;;;78.93;5.90;;;;;;;20.13;63.82;98639.53;7310811;19;129278;-65
2022/12/12 05:27:26;;;;;;;28.30;3.13;;;;;;;20.12;63.66;98643.09;7312404;19;130305;-64
2022/12/12 05:29:51;;;;;;;45.25;3.90;;;;;;;20.09;63.62;98641.63;7310155;19;129764;-66
2022/12/12 05:32:17;;;;;;;38.80;3.40;;;;;;;20.08;63.86;98645.19;7309942;19;129913;-65
2022/12/12 05:34:42;;;;;;;44.47;3.67;;;;;;;20.09;64.36;98646.03;7310080;19;129877;-64
2022/12/12 05:37:07;;;;;;;10.77;1.73;;;;;;;20.11;62.86;98642.31;7312244;19;130398;-66
2022/12/12 05:39:33;;;;;;;31.23;3.17;;;;;;;19.96;64.65;98629.94;7312764;19;129174;-64
2022/12/12 05:41:58;;;;;;;65.88;5.47;;;;;;;20.07;64.14;98642.75;7308662;19;130716;-65
2022/12/12 05:44:23;;;;;;;55.13;4.78;;;;;;;20.08;63.19;98642.59;7310513;19;129711;-67
2022/12/12 05:46:49;;;;;;;24.58;2.33;;;;;;;20.10;63.27;98645.03;7310687;19;129331;-66
2022/12/12 05:49:14;;;;;;;45.70;4.07;;;;;;;20.10;62.87;98639.81;7309186;19;130553;-66
2022/12/12 05:51:40;;;;;;;65.70;5.32;;;;;;;20.01;63.01;98625.09;7310181;19;129315;-65
2022/12/12 05:54:06;;;;;;;35.10;3.27;;;;;;;20.09;62.94;98640.81;7308943;19;131313;-64
2022/12/12 05:56:31;;;;;;;29.65;3.08;;;;;;;20.09;63.55;98644.25;7311666;19;129366;-66
2022/12/12 05:58:56;;;;;;;31.45;2.83;;;;;;;20.09;63.02;98644.25;7309061;19;129091;-66
2022/12/12 06:01:22;;;;;;;84.88;7.13;;;;;;;20.04;63.65;98640.44;7309463;19;129322;-66
2022/12/12 06:03:47;;;;;;;59.85;4.93;;;;;;;20.09;63.12;98641.63;7308085;19;130232;-67
2022/12/12 06:06:13;;;;;;;39.85;3.83;;;;;;;20.09;63.87;98648.63;7310907;19;129524;-65
2022/12/12 06:08:38;;;;;;;35.80;3.28;;;;;;;20.09;63.46;98646.03;7311506;19;129578;-67
2022/12/12 06:11:05;;;;;;;50.00;4.15;;;;;;;20.06;64.16;98649.78;7310813;19;129056;-66
2022/12/12 06:13:31;;;;;;;39.50;3.72;;;;;;;20.04;64.23;98656.09;7309806;19;129054;-68
2022/12/12 06:15:56;;;;;;;30.10;3.25;;;;;;;20.03;63.87;98657.06;7311879;19;129295;-64
2022/12/12 06:18:21;;;;;;;64.45;5.38;;;;;;;20.03;63.08;98649.25;7311063;19;129614;-64
2022/12/12 06:20:47;;;;;;;51.72;4.18;;;;;;;19.96;64.30;98643.00;7306005;19;129969;-64
2022/12/12 06:23:12;;;;;;;40.15;3.85;;;;;;;20.05;64.25;98657.72;7310068;19;129468;-65
2022/12/12 06:25:38;;;;;;;42.60;3.63;;;;;;;20.07;63.23;98650.56;7307122;19;130742;-65
2022/12/12 06:28:03;;;;;;;41.17;3.63;;;;;;;20.01;64.30;98654.63;7308062;19;131059;-64
2022/12/12 06:30:28;;;;;;;60.78;5.05;;;;;;;20.05;64.39;98660.34;7308324;19;129599;-67
2022/12/12 06:32:54;;;;;;;113.53;9.98;;;;;;;20.04;64.66;98662.13;7294157;19;131046;-64
2022/12/12 06:35:19;;;;;;;54.35;4.97;;;;;;;20.05;63.80;98670.75;7293711;19;130515;-67
2022/12/12 06:37:44;;;;;;;53.47;4.97;;;;;;;20.03;63.29;98673.53;7305671;19;129145;-66
2022/12/12 06:40:11;;;;;;;94.47;7.45;;;;;;;20.06;63.14;98673.25;7307096;19;130036;-66
2022/12/12 06:42:36;;;;;;;20.90;2.60;;;;;;;20.03;63.61;98668.31;7312050;19;129143;-67
2022/12/12 06:45:02;;;;;;;56.65;5.15;;;;;;;20.05;63.45;98678.59;7315623;19;129059;-65
2022/12/12 06:47:28;;;;;;;31.58;3.20;;;;;;;19.99;64.11;98680.03;7303680;19;129442;-67
2022/12/12 06:49:53;;;;;;;27.77;2.72;;;;;;;20.02;63.88;98681.50;7313668;19;129087;-65
2022/12/12 06:52:18;;;;;;;22.73;2.80;;;;;;;20.07;63.72;98674.06;7309205;19;128831;-65
2022/12/12 06:54:43;;;;;;;55.35;4.68;;;;;;;20.03;63.44;98681.34;7313956;19;129265;-66
2022/12/12 06:57:09;;;;;;;48.15;4.32;;;;;;;19.98;63.66;98678.38;7313508;19;129146;-67
2022/12/12 06:59:34;;;;;;;6.70;1.90;;;;;;;20.01;63.29;98692.94;7314834;19;129953;-68
2022/12/12 07:02:00;;;;;;;36.30;3.60;;;;;;;20.02;63.96;98684.13;7311448;19;128834;-65
2022/12/12 07:04:28;;;;;;;44.92;3.90;;;;;;;19.86;63.85;98673.56;7309779;19;131566;-66
2022/12/12 07:06:54;;;;;;;42.67;3.55;;;;;;;20.00;63.51;98696.53;7310540;19;132722;-64
2022/12/12 07:09:19;;;;;;;22.15;2.60;;;;;;;19.99;63.48;98700.91;7312779;19;130488;-67
2022/12/12 07:11:45;;;;;;;21.77;2.58;;;;;;;20.03;63.53;98701.44;7311570;19;129362;-67
2022/12/12 07:14:10;;;;;;;49.03;4.10;;;;;;;20.02;63.14;98705.00;7312250;19;129161;-67
2022/12/12 07:16:36;;;;;;;33.63;3.30;;;;;;;20.06;63.36;98695.91;7311205;19;130388;-67
2022/12/12 07:19:02;;;;;;;28.23;3.23;;;;;;;20.02;63.35;98707.59;7312426;19;129613;-65
2022/12/12 07:21:28;;;;;;;31.15;3.17;;;;;;;20.05;63.20;98715.13;7311942;19;128932;-68
2022/12/12 07:23:55;;;;;;;50.50;4.03;;;;;;;20.01;63.93;98713.81;7312306;19;129228;-67
2022/12/12 07:26:23;;;;;;;28.23;2.95;;;;;;;20.04;63.00;98713.50;7308646;19;130169;-67
2022/12/12 07:28:49;;;;;;;32.15;2.90;;;;;;;20.10;62.48;98715.50;7309025;19;129779;-68
2022/12/12 07:31:17;;;;;;;37.45;3.50;;;;;;;20.12;62.56;98716.16;7305442;19;129635;-65
2022/12/12 07:33:42;;;;;;;39.58;3.67;;;;;;;20.13;62.61;98723.03;7312688;19;129453;-68
2022/12/12 07:36:08;;;;;;;17.52;2.33;;;;;;;20.12;62.60;98717.00;7320442;19;129657;-67
2022/12/12 07:38:34;;;;;;;22.33;2.20;;;;;;;20.13;62.49;98718.63;7312742;19;128846;-66
2022/12/12 07:41:09;;;;;;;29.70;2.70;;;;;;;20.14;62.87;98729.88;7311420;19;129305;-67
2022/12/12 07:43:35;;;;;;;40.83;3.75;;;;;;;20.12;62.97;98724.81;7312655;19;132671;-68
2022/12/12 07:46:01;;;;;;;27.98;2.90;;;;;;;20.14;62.91;98729.88;7320188;19;130613;-70
2022/12/12 07:48:27;;;;;;;27.90;3.05;;;;;;;20.11;62.18;98724.97;7316432;19;128799;-68
2022/12/12 07:50:53;;;;;;;30.20;2.97;;;;;;;20.11;62.98;98722.38;7316368;19;129245;-67
2022/12/12 07:53:18;;;;;;;43.03;3.92;;;;;;;20.10;62.80;98724.16;7316256;19;132794;-69
2022/12/12 07:55:44;;;;;;;31.25;3.17;;;;;;;20.13;62.35;98730.88;7317550;19;132682;-69
2022/12/12 07:58:09;;;;;;;40.70;4.10;;;;;;;20.15;62.28;98721.94;7317613;19;128978;-67
2022/12/12 08:00:34;;;;;;;35.33;3.58;;;;;;;20.10;62.79;98723.31;7316316;19;129575;-68
2022/12/12 08:03:00;;;;;;;36.10;3.25;;;;;;;20.14;62.24;98725.50;7317697;19;129474;-66
2022/12/12 08:05:25;;;;;;;43.45;3.97;;;;;;;20.04;62.23;98719.53;7317039;19;130826;-68
2022/12/12 08:07:51;;;;;;;39.88;3.97;;;;;;;20.12;62.47;98731.81;7315803;19;129392;-68
2022/12/12 08:10:16;;;;;;;30.95;3.28;;;;;;;19.99;62.95;98713.13;7316300;19;129095;-69
2022/12/12 08:12:42;;;;;;;46.22;4.30;;;;;;;20.13;62.60;98733.47;7317147;19;129955;-67
2022/12/12 08:15:10;;;;;;;38.92;3.78;;;;;;;20.02;62.30;98720.66;7317146;19;131441;-70
2022/12/12 08:17:35;;;;;;;30.80;3.22;;;;;;;20.10;62.80;98737.19;7317435;19;128945;-69
2022/12/12 08:20:01;;;;;;;34.22;3.45;;;;;;;20.09;62.36;98746.00;7317713;19;129301;-70
2022/12/12 08:22:26;;;;;;;38.92;3.63;;;;;;;20.11;62.98;98745.84;7316690;19;129643;-67
2022/12/12 08:24:51;;;;;;;35.40;3.53;;;;;;;20.14;62.59;98758.59;7317569;19;129482;-70
2022/12/12 08:27:17;;;;;;;24.23;3.03;;;;;;;20.13;62.75;98756.97;7317257;19;129749;-69
2022/12/12 08:29:42;;;;;;;45.70;4.10;;;;;;;20.14;63.06;98755.97;7328771;19;129324;-69
2022/12/12 08:32:08;;;;;;;20.55;2.35;;;;;;;20.10;63.01;98752.03;7315328;19;129398;-68
2022/12/12 08:34:33;;;;;;;28.30;3.13;;;;;;;20.16;63.15;98767.91;7316630;19;129614;-67
2022/12/12 08:36:58;;;;;;;18.90;2.30;;;;;;;20.18;63.32;98767.81;7316365;19;129105;-69
2022/12/12 08:39:24;;;;;;;38.55;3.35;;;;;;;20.15;63.02;98765.47;7316716;19;129195;-70
2022/12/12 08:41:49;;;;;;;26.13;2.83;;;;;;;20.15;63.39;98762.84;7313286;19;132072;-66
2022/12/12 08:44:18;;;;;;;39.70;3.65;;;;;;;20.14;62.96;98755.97;7314978;19;130010;-67
2022/12/12 08:46:43;;;;;;;49.13;4.40;;;;;;;20.12;62.62;98758.75;7315183;19;128992;-69
2022/12/12 08:49:10;;;;;;;51.22;4.50;;;;;;;20.11;63.24;98761.50;7316016;19;129052;-67
2022/12/12 08:51:41;;;;;;;23.80;2.65;;;;;;;20.08;62.96;98761.81;7316738;19;129829;-67
2022/12/12 08:54:07;;;;;;;24.13;2.85;;;;;;;20.08;62.49;98767.81;7312642;19;132347;-68
2022/12/12 08:56:33;;;;;;;15.98;2.33;;;;;;;20.08;62.89;98767.03;7314452;19;129366;-67
2022/12/12 08:58:59;;;;;;;53.70;4.68;;;;;;;20.09;62.88;98758.22;7314183;19;129099;-67
2022/12/12 09:01:26;;;;;;;30.85;3.17;;;;;;;20.14;63.19;98766.41;7313956;19;130118;-65
2022/12/12 09:03:53;;;;;;;40.53;3.67;;;;;;;20.12;62.72;98774.41;7314332;19;129619;-68
2022/12/12 09:06:19;;;;;;;31.98;3.33;;;;;;;20.08;62.57;98769.63;7315496;19;129381;-68
2022/12/12 09:08:45;;;;;;;45.43;4.33;;;;;;;20.12;62.65;98784.00;7312886;19;129000;-68
2022/12/12 09:11:11;;;;;;;16.60;2.87;;;;;;;19.98;62.66;98763.69;7311708;19;129262;-67
2022/12/12 09:13:38;;;;;;;42.00;3.90;;;;;;;20.05;63.00;98788.19;7315335;19;130763;-68
2022/12/12 09:16:05;;;;;;;47.10;4.60;;;;;;;20.10;62.50;98784.16;7311645;19;128987;-68
2022/12/12 09:18:30;;;;;;;51.72;5.13;;;;;;;20.05;62.16;98782.97;7315723;19;128951;-66
2022/12/12 09:20:57;;;;;;;41.03;3.97;;;;;;;20.07;61.83;98794.91;7323653;19;129184;-65
2022/12/12 09:23:24;;;;;;;27.70;3.67;;;;;;;20.09;61.95;98794.75;7316971;19;129250;-66
2022/12/12 09:25:50;;;;;;;34.47;4.30;;;;;;;20.08;62.00;98793.13;7316777;19;129477;-68
2022/12/12 09:28:17;;;;;;;50.70;5.20;;;;;;;19.95;62.06;98771.81;7312407;19;129135;-66
2022/12/12 09:30:43;;;;;;;35.60;3.83;;;;;;;19.94;62.43;98773.59;7315570;19;129062;-66
2022/12/12 09:33:09;;;;;;;43.92;4.63;;;;;;;20.05;62.45;98789.00;7311738;19;131873;-67
2022/12/12 09:35:35;;;;;;;30.27;3.75;;;;;;;20.07;62.49;98794.06;7314944;19;128946;-68
2022/12/12 09:38:00;;;;;;;54.42;4.93;;;;;;;20.07;62.57;98783.63;7316207;19;129485;-68
2022/12/12 09:40:33;;;;;;;34.78;3.85;;;;;;;20.12;62.18;98794.44;7313626;19;129521;-66
2022/12/12 09:42:59;;;;;;;47.63;4.32;;;;;;;20.11;61.74;98790.22;7313934;19;129195;-67
2022/12/12 09:45:24;;;;;;;29.83;3.77;;;;;;;20.10;62.35;98798.97;7314409;19;129160;-68
2022/12/12 09:47:56;;;;;;;44.88;4.32;;;;;;;20.11;63.25;98787.59;7314070;19;131779;-69
2022/12/12 09:50:36;;;;;;;45.97;4.57;;;;;;;20.09;62.87;98790.38;7315232;19;130780;-68
2022/12/12 09:53:05;;;;;;;28.42;3.33;;;;;;;20.09;62.19;98792.13;7316871;19;129829;-67
2022/12/12 09:55:56;;;;;;;13.13;2.55;;;;;;;20.10;62.65;98801.59;7315522;19;128793;-67
2022/12/12 09:58:48;;;;;;;35.15;4.05;;;;;;;20.04;62.64;98796.97;7314728;19;130357;-69
2022/12/12 10:01:22;;;;;;;36.97;4.18;;;;;;;20.08;62.48;98796.53;7314410;19;129328;-68
2022/12/12 10:04:02;;;;;;;22.25;3.50;;;;;;;20.06;62.75;98789.84;7316078;19;130228;-67
2022/12/12 10:06:40;;;;;;;27.17;3.30;;;;;;;20.05;62.94;98793.41;7314681;19;129020;-69
2022/12/12 10:09:31;;;;;;;29.40;3.10;;;;;;;20.07;62.68;98801.91;7311342;19;129394;-66
2022/12/12 10:11:59;;;;;;;21.00;2.85;;;;;;;20.09;62.75;98799.97;7313257;19;128997;-68
2022/12/12 10:14:41;;;;;;;31.20;3.80;;;;;;;20.09;63.38;98807.78;7327829;19;129551;-68
2022/12/12 10:17:13;;;;;;;50.47;4.80;;;;;;;20.08;63.06;98809.56;7314450;19;128826;-68
2022/12/12 10:19:48;;;;;;;28.70;3.45;;;;;;;20.05;62.78;98809.06;7315491;19;129124;-67
2022/12/12 10:22:24;;;;;;;33.92;4.10;;;;;;;20.04;63.09;98810.03;7312681;19;129341;-67
2022/12/12 10:24:54;;;;;;;35.30;3.67;;;;;;;20.06;62.89;98815.94;7315026;19;129660;-66
2022/12/12 10:27:22;;;;;;;25.70;3.40;;;;;;;20.09;62.53;98821.66;7314716;19;128857;-68
2022/12/12 10:29:48;;;;;;;42.97;3.75;;;;;;;20.07;62.58;98807.94;7313670;19;130071;-65
2022/12/12 10:32:32;;;;;;;31.27;3.27;;;;;;;20.05;63.85;98814.25;7311946;19;129153;-67
2022/12/12 10:35:22;;;;;;;33.88;3.55;;;;;;;20.10;63.77;98814.63;7315836;19;129363;-67
2022/12/12 10:38:15;;;;;;;24.05;2.92;;;;;;;20.05;62.98;98814.25;7315559;19;129003;-68
2022/12/12 10:41:12;;;;;;;34.75;3.75;;;;;;;20.05;63.43;98815.09;7313582;19;129023;-67
2022/12/12 10:44:10;;;;;;;46.20;4.32;;;;;;;20.07;62.88;98814.94;7313227;19;129729;-68
2022/12/12 10:46:38;;;;;;;31.37;3.13;;;;;;;20.04;62.85;98813.47;7311798;19;129479;-69
2022/12/12 10:49:16;;;;;;;38.88;4.05;;;;;;;20.08;62.82;98816.59;7313359;19;129050;-68
2022/12/12 10:51:43;;;;;;;38.72;3.83;;;;;;;20.11;62.55;98804.09;7312440;19;128889;-68
2022/12/12 10:54:20;;;;;;;25.95;2.90;;;;;;;20.09;62.97;98818.22;7314508;19;129100;-67
2022/12/12 10:57:05;;;;;;;;;;;;;;;20.06;63.54;98816.75;7314154;19;129130;-65
2022/12/12 10:59:35;;;;;;;19.98;2.33;;;;;;;20.10;62.42;98815.47;7313776;19;128876;-68
2022/12/12 11:02:01;;;;;;;23.67;2.55;;;;;;;20.08;62.58;98806.16;7311212;19;128967;-68
2022/12/12 11:04:30;;;;;;;31.05;3.53;;;;;;;20.07;63.03;98817.56;7313594;19;130138;-67
2022/12/12 11:06:56;;;;;;;20.65;2.60;;;;;;;20.07;63.03;98807.13;7318503;19;129235;-68
2022/12/12 11:09:26;;;;;;;27.10;2.87;;;;;;;20.05;63.37;98814.25;7314138;19;130827;-68
2022/12/12 11:11:56;;;;;;;46.47;4.28;;;;;;;20.05;63.12;98803.84;7309023;19;129296;-68
2022/12/12 11:14:32;;;;;;;38.50;4.03;;;;;;;20.05;63.62;98803.84;7313687;19;129206;-68
2022/12/12 11:16:57;;;;;;;23.15;2.78;;;;;;;20.07;63.40;98807.13;7311079;19;129161;-67
2022/12/12 11:19:26;;;;;;;25.80;3.22;;;;;;;20.05;63.03;98803.84;7314046;19;129175;-68
2022/12/12 11:21:53;;;;;;;22.73;2.78;;;;;;;20.07;63.28;98804.50;7311564;19;129609;-68
2022/12/12 11:24:21;;;;;;;39.42;3.65;;;;;;;20.05;62.93;98809.06;7314132;19;129322;-65
2022/12/12 11:27:02;;;;;;;37.80;3.50;;;;;;;20.06;63.75;98805.50;7312393;19;130121;-69
2022/12/12 11:29:46;;;;;;;24.98;2.90;;;;;;;19.92;63.34;98788.56;7314584;19;129076;-67
2022/12/12 11:32:37;;;;;;;24.05;2.75;;;;;;;20.05;63.64;98812.50;7311254;19;128955;-67
2022/12/12 11:35:07;;;;;;;41.25;4.57;;;;;;;20.07;63.01;98815.78;7312465;19;129109;-67
2022/12/12 11:37:58;;;;;;;34.47;3.88;;;;;;;20.08;63.10;98814.00;7312566;19;129142;-67
2022/12/12 11:40:27;;;;;;;33.30;3.20;;;;;;;20.08;63.11;98822.63;7312549;19;129009;-69
2022/12/12 11:43:07;;;;;;;23.75;2.60;;;;;;;20.05;62.97;98819.50;7313170;19;128852;-66
2022/12/12 11:45:32;;;;;;;30.05;3.08;;;;;;;20.06;62.48;98827.19;7312158;19;129573;-69
2022/12/12 11:47:57;;;;;;;38.25;3.72;;;;;;;20.08;62.92;98829.66;7311007;19;129785;-68